createdAt,value
2023-04-18T00:03:36.215Z,10.69
2023-04-18T00:08:49.073Z,12.67
2023-04-18T00:13:52.161Z,12.67
2023-04-18T00:18:55.307Z,12.59
2023-04-18T00:23:57.854Z,10.58
2023-04-18T00:29:00.528Z,10.79
2023-04-18T00:34:13.382Z,11.95
2023-04-18T00:39:16.475Z,11.89
2023-04-18T00:44:19.093Z,12.50
2023-04-18T00:49:22.520Z,11.01
2023-04-18T00:54:25.558Z,10.98
2023-04-18T00:59:28.197Z,12.05
2023-04-18T01:04:33.293Z,11.12
2023-04-18T01:09:37.036Z,11.11
2023-04-18T01:14:43.731Z,10.71
2023-04-18T01:19:49.882Z,11.31
2023-04-18T01:24:52.892Z,9.66
2023-04-18T01:29:57.626Z,8.27
2023-04-18T01:35:00.424Z,9.26
2023-04-18T01:40:03.325Z,9.38
2023-04-18T01:45:07.014Z,10.31
2023-04-18T01:50:10.335Z,9.33
2023-04-18T01:55:13.104Z,6.90
2023-04-18T02:00:16.148Z,9.99
2023-04-18T02:05:23.337Z,8.88
2023-04-18T02:10:28.626Z,9.29
2023-04-18T02:15:32.357Z,10.13
2023-04-18T02:20:35.142Z,9.23
2023-04-18T02:25:37.733Z,10.56
2023-04-18T02:30:40.552Z,9.91
2023-04-18T02:35:44.489Z,10.94
2023-04-18T02:40:57.276Z,11.26
2023-04-18T02:46:00.304Z,9.51
2023-04-18T02:51:07.577Z,11.17
2023-04-18T02:56:10.448Z,11.38
2023-04-18T03:01:13.460Z,11.07
2023-04-18T03:06:16.035Z,10.09
2023-04-18T03:11:18.606Z,11.36
2023-04-18T03:16:21.963Z,11.05
2023-04-18T03:21:24.602Z,10.45
2023-04-18T03:26:27.734Z,11.90
2023-04-18T03:31:30.348Z,11.59
2023-04-18T03:36:33.379Z,9.99
2023-04-18T03:41:36.147Z,11.14
2023-04-18T03:46:38.779Z,10.49
2023-04-18T03:51:48.696Z,10.53
2023-04-18T03:56:51.741Z,9.81
2023-04-18T04:01:54.423Z,10.54
2023-04-18T04:06:57.446Z,11.58
2023-04-18T04:12:00.052Z,9.54
2023-04-18T04:17:02.657Z,9.21
2023-04-18T04:22:11.996Z,11.42
2023-04-18T04:27:14.640Z,9.83
2023-04-18T04:32:17.774Z,9.17
2023-04-18T04:37:20.433Z,9.93
2023-04-18T04:42:25.976Z,11.06
2023-04-18T04:47:29.241Z,11.99
2023-04-18T04:52:33.522Z,10.34
2023-04-18T04:57:36.926Z,10.65
2023-04-18T05:02:39.549Z,10.62
2023-04-18T05:07:42.329Z,12.24
2023-04-18T05:12:45.200Z,12.03
2023-04-18T05:17:48.127Z,10.10
2023-04-18T05:22:51.682Z,11.82
2023-04-18T05:27:54.499Z,10.58
2023-04-18T05:32:57.250Z,11.20
2023-04-18T05:38:00.074Z,10.14
2023-04-18T05:43:02.925Z,10.45
2023-04-18T05:48:05.557Z,11.63
2023-04-18T05:53:08.416Z,12.03
2023-04-18T05:58:21.047Z,10.88
2023-04-18T06:03:23.929Z,12.80
2023-04-18T06:08:26.722Z,12.37
2023-04-18T06:13:29.354Z,10.98
2023-04-18T06:18:32.742Z,13.18
2023-04-18T06:23:35.436Z,11.89
2023-04-18T06:28:37.986Z,11.76
2023-04-18T06:33:40.567Z,13.72
2023-04-18T06:38:43.297Z,12.76
2023-04-18T06:43:59.776Z,13.06
2023-04-18T06:49:05.818Z,13.43
2023-04-18T06:54:08.622Z,12.33
2023-04-18T06:59:11.313Z,12.46
2023-04-18T07:04:14.848Z,13.78
2023-04-18T07:09:18.027Z,14.03
2023-04-18T07:14:22.977Z,13.74
2023-04-18T07:19:26.705Z,13.99
2023-04-18T07:24:29.519Z,14.22
2023-04-18T07:29:32.675Z,14.92
2023-04-18T07:34:37.245Z,12.85
2023-04-18T07:39:42.030Z,13.98
2023-04-18T07:45:00.505Z,14.80
2023-04-18T07:50:10.107Z,14.82
2023-04-18T07:55:26.270Z,14.52
2023-04-18T08:00:40.064Z,14.90
2023-04-18T08:05:44.265Z,14.92
2023-04-18T08:10:57.981Z,15.28
2023-04-18T08:16:03.342Z,15.12
2023-04-18T08:21:06.081Z,16.93
2023-04-18T08:26:08.669Z,16.93
2023-04-18T08:31:15.795Z,17.11
2023-04-18T08:36:18.409Z,17.78
2023-04-18T08:41:24.200Z,17.38
2023-04-18T08:46:27.312Z,18.55
2023-04-18T08:51:41.094Z,17.57
2023-04-18T08:56:43.972Z,16.04
2023-04-18T09:01:57.653Z,17.26
2023-04-18T09:07:00.580Z,16.70
2023-04-18T09:12:10.779Z,15.60
2023-04-18T09:17:34.410Z,16.95
2023-04-18T09:22:54.245Z,17.05
2023-04-18T09:28:02.948Z,16.87
2023-04-18T09:33:08.428Z,15.66
2023-04-18T09:38:11.620Z,16.26
2023-04-18T09:43:21.577Z,17.36
2023-04-18T09:48:35.180Z,17.80
2023-04-18T09:53:40.827Z,17.69
2023-04-18T09:58:45.192Z,15.51
2023-04-18T10:03:52.658Z,15.30
2023-04-18T10:08:56.372Z,17.01
2023-04-18T10:14:04.339Z,17.08
2023-04-18T10:19:25.648Z,17.12
2023-04-18T10:24:50.412Z,17.81
2023-04-18T10:29:58.629Z,17.33
2023-04-18T10:35:03.027Z,16.15
2023-04-18T10:40:14.893Z,16.92
2023-04-18T10:45:22.397Z,17.46
2023-04-18T10:50:26.756Z,17.11
2023-04-18T10:55:44.783Z,17.31
2023-04-18T11:00:51.756Z,16.30
2023-04-18T11:06:02.838Z,17.33
2023-04-18T11:11:09.979Z,17.30
2023-04-18T11:16:29.865Z,17.16
2023-04-18T11:21:32.936Z,17.22
2023-04-18T11:26:39.240Z,17.12
2023-04-18T11:31:42.590Z,17.04
2023-04-18T11:36:45.248Z,17.19
2023-04-18T11:41:51.418Z,17.24
2023-04-18T11:46:54.628Z,17.40
2023-04-18T11:51:59.898Z,16.14
2023-04-18T11:57:03.258Z,17.01
2023-04-18T12:02:16.216Z,15.25
2023-04-18T12:07:56.833Z,17.18
2023-04-18T12:12:59.852Z,17.15
2023-04-18T12:18:05.592Z,15.87
2023-04-18T12:23:08.882Z,15.25
2023-04-18T12:28:16.571Z,16.26
2023-04-18T12:33:20.515Z,15.96
2023-04-18T12:38:31.315Z,15.69
2023-04-18T12:43:33.906Z,14.16
2023-04-18T12:48:36.944Z,15.37
2023-04-18T12:53:49.511Z,15.81
2023-04-18T12:58:52.080Z,14.71
2023-04-18T13:04:12.669Z,15.80
2023-04-18T13:09:17.385Z,15.84
2023-04-18T13:14:20.212Z,15.51
2023-04-18T13:19:23.339Z,13.97
2023-04-18T13:24:26.141Z,16.12
2023-04-18T13:29:29.268Z,15.46
2023-04-18T13:34:32.177Z,14.54
2023-04-18T13:39:35.748Z,15.11
2023-04-18T13:44:39.029Z,17.14
2023-04-18T13:49:42.221Z,16.81
2023-04-18T13:54:44.930Z,16.24
2023-04-18T13:59:47.719Z,17.31
2023-04-18T14:04:59.024Z,17.28
2023-04-18T14:10:02.947Z,14.86
2023-04-18T14:15:06.344Z,17.17
2023-04-18T14:20:09.626Z,16.81
2023-04-18T14:25:12.835Z,16.90
2023-04-18T14:30:15.879Z,17.08
2023-04-18T14:35:18.514Z,16.23
2023-04-18T14:40:21.633Z,17.22
2023-04-18T14:45:24.219Z,15.29
2023-04-18T14:50:27.703Z,17.10
2023-04-18T14:55:30.388Z,16.47
2023-04-18T15:00:34.051Z,17.07
2023-04-18T15:05:39.456Z,17.27
2023-04-18T15:10:43.309Z,17.18
2023-04-18T15:15:52.906Z,16.92
2023-04-18T15:20:55.657Z,15.13
2023-04-18T15:25:58.214Z,14.81
2023-04-18T15:31:00.844Z,15.37
2023-04-18T15:36:03.681Z,15.09
2023-04-18T15:41:16.483Z,17.01
2023-04-18T15:46:19.139Z,16.97
2023-04-18T15:51:23.007Z,16.10
2023-04-18T15:56:27.575Z,17.01
2023-04-18T16:01:30.565Z,16.95
2023-04-18T16:06:33.149Z,14.83
2023-04-18T16:11:45.993Z,16.47
2023-04-18T16:16:49.309Z,15.91
2023-04-18T16:21:52.200Z,16.32
2023-04-18T16:26:56.517Z,15.68
2023-04-18T16:31:59.333Z,13.45
2023-04-18T16:37:02.587Z,14.32
2023-04-18T16:42:06.120Z,15.16
2023-04-18T16:47:09.158Z,13.76
2023-04-18T16:52:11.872Z,14.44
2023-04-18T16:57:14.725Z,15.08
2023-04-18T17:02:17.599Z,14.74
2023-04-18T17:07:20.343Z,12.88
2023-04-18T17:12:22.882Z,14.15
2023-04-18T17:17:36.377Z,13.65
2023-04-18T17:22:39.433Z,14.77
2023-04-18T17:27:42.278Z,14.88
2023-04-18T17:32:52.569Z,15.15
2023-04-18T17:37:55.153Z,14.12
2023-04-18T17:42:57.757Z,14.75
2023-04-18T17:48:03.332Z,13.46
2023-04-18T17:53:06.185Z,13.52
2023-04-18T17:58:08.876Z,13.77
2023-04-18T18:03:15.173Z,13.34
2023-04-18T18:08:18.393Z,13.32
2023-04-18T18:13:21.236Z,13.27
2023-04-18T18:18:24.242Z,12.83
2023-04-18T18:23:26.820Z,12.87
2023-04-18T18:28:29.658Z,12.77
2023-04-18T18:33:32.187Z,12.76
2023-04-18T18:38:44.802Z,12.22
2023-04-18T18:43:51.270Z,12.40
2023-04-18T18:49:12.636Z,11.66
2023-04-18T18:54:15.248Z,12.63
2023-04-18T18:59:18.716Z,12.99
2023-04-18T19:04:21.634Z,12.89
2023-04-18T19:09:24.536Z,12.82
2023-04-18T19:14:27.250Z,11.20
2023-04-18T19:19:29.817Z,11.61
2023-04-18T19:24:32.750Z,11.54
2023-04-18T19:29:41.370Z,12.53
2023-04-18T19:34:43.976Z,12.28
2023-04-18T19:39:46.566Z,11.01
2023-04-18T19:45:00.173Z,11.49
2023-04-18T19:50:02.748Z,11.76
2023-04-18T19:55:05.886Z,12.24
2023-04-18T20:00:12.970Z,11.16
2023-04-18T20:05:15.698Z,12.09
2023-04-18T20:10:22.923Z,11.27
2023-04-18T20:15:30.668Z,11.51
2023-04-18T20:20:43.729Z,12.30
2023-04-18T20:25:46.311Z,12.31
2023-04-18T20:30:59.188Z,10.92
2023-04-18T20:36:02.017Z,11.72
2023-04-18T20:41:04.706Z,10.82
2023-04-18T20:51:14.885Z,12.16
2023-04-18T20:56:18.649Z,12.09
2023-04-18T21:01:22.974Z,12.10
2023-04-18T21:06:29.145Z,11.84
2023-04-18T21:11:32.541Z,12.02
2023-04-18T21:16:37.500Z,12.17
2023-04-18T21:21:41.251Z,12.15
2023-04-18T21:26:44.871Z,12.04
2023-04-18T21:31:51.013Z,11.86
2023-04-18T21:37:01.733Z,11.73
2023-04-18T21:42:04.765Z,12.04
2023-04-18T21:47:07.813Z,11.34
2023-04-18T21:52:10.432Z,11.75
2023-04-18T21:57:13.399Z,11.51
2023-04-18T22:02:17.218Z,10.72
2023-04-18T22:07:20.140Z,10.80
2023-04-18T22:12:22.690Z,11.77
2023-04-18T22:17:25.376Z,11.35
2023-04-18T22:22:28.069Z,11.93
2023-04-18T22:27:30.617Z,11.77
2023-04-18T22:32:33.714Z,11.78
2023-04-18T22:37:36.344Z,10.58
2023-04-18T22:42:39.215Z,11.69
2023-04-18T22:47:51.861Z,11.11
2023-04-18T22:52:54.716Z,11.26
2023-04-18T22:57:57.943Z,9.54
2023-04-18T23:03:01.143Z,11.59
2023-04-18T23:08:03.839Z,10.81
2023-04-18T23:13:06.694Z,9.92
2023-04-18T23:18:09.638Z,10.85
2023-04-18T23:23:12.179Z,11.01
2023-04-18T23:28:14.711Z,10.97
2023-04-18T23:33:17.864Z,10.00
2023-04-18T23:38:24.333Z,11.55
2023-04-18T23:43:27.142Z,11.02
2023-04-18T23:48:29.825Z,10.62
2023-04-18T23:53:32.406Z,11.34
2023-04-18T23:58:35.022Z,10.51
